Time;durP1;ratioP1;P1;durP2;ratioP2;P2;SDS_P1;SDS_P2;PMS_P1;PMS_P2;Temp;Humidity;BMP_temperature;BMP_pressure;BME280_temperature;BME280_humidity;BME280_pressure;Samples;Min_cycle;Max_cycle;Signal;HPM_P1;HPM_P2
2023/08/30 00:00:04;;;;;;;4.47;4.17;;;;;;;;;;5088852;28;20618;-66
2023/08/30 00:02:34;;;;;;;5.33;4.93;;;;;;;;;;5073844;28;20596;-67
2023/08/30 00:05:04;;;;;;;4.73;4.33;;;;;;;;;;5073689;28;20693;-68
2023/08/30 00:07:33;;;;;;;5.13;4.30;;;;;;;;;;5074557;28;20591;-67
2023/08/30 00:10:02;;;;;;;5.50;5.00;;;;;;;;;;5074542;28;20606;-68
2023/08/30 00:12:31;;;;;;;5.20;4.80;;;;;;;;;;5083339;28;20618;-68
2023/08/30 00:14:59;;;;;;;5.43;5.03;;;;;;;;;;5093387;28;20583;-68
2023/08/30 00:17:27;;;;;;;6.07;5.60;;;;;;;;;;5087022;28;20653;-68
2023/08/30 00:19:56;;;;;;;4.83;4.50;;;;;;;;;;5092837;28;21065;-68
2023/08/30 00:22:24;;;;;;;5.90;5.40;;;;;;;;;;5095176;28;20580;-67
2023/08/30 00:24:54;;;;;;;5.90;5.50;;;;;;;;;;5094743;28;20591;-68
2023/08/30 00:27:22;;;;;;;6.67;5.97;;;;;;;;;;5094391;28;20716;-68
2023/08/30 00:29:51;;;;;;;8.70;5.90;;;;;;;;;;5094341;28;20617;-67
2023/08/30 00:32:19;;;;;;;5.90;5.40;;;;;;;;;;5094383;28;20967;-68
2023/08/30 00:34:47;;;;;;;6.43;5.90;;;;;;;;;;5093987;28;20695;-68
2023/08/30 00:37:15;;;;;;;5.50;5.10;;;;;;;;;;5094473;28;20596;-67
2023/08/30 00:39:44;;;;;;;6.13;5.53;;;;;;;;;;5092985;28;20624;-67
2023/08/30 00:42:13;;;;;;;6.00;5.50;;;;;;;;;;5091878;28;20992;-68
2023/08/30 00:44:42;;;;;;;6.87;6.33;;;;;;;;;;5092811;28;20996;-67
2023/08/30 00:47:10;;;;;;;6.20;5.80;;;;;;;;;;5093921;28;20938;-66
2023/08/30 00:49:38;;;;;;;8.03;7.20;;;;;;;;;;5094474;28;20634;-67
2023/08/30 00:52:08;;;;;;;6.70;6.30;;;;;;;;;;5074880;28;20617;-66
2023/08/30 00:54:36;;;;;;;6.77;6.20;;;;;;;;;;5091803;28;21173;-67
2023/08/30 00:57:04;;;;;;;8.60;7.90;;;;;;;;;;5093824;28;20602;-68
2023/08/30 00:59:34;;;;;;;6.87;6.37;;;;;;;;;;5093558;28;21291;-67
2023/08/30 01:02:03;;;;;;;8.40;7.70;;;;;;;;;;5094716;28;20597;-62
2023/08/30 01:04:32;;;;;;;7.87;7.37;;;;;;;;;;5093602;28;20661;-62
2023/08/30 01:07:00;;;;;;;6.70;6.30;;;;;;;;;;5096580;28;20677;-63
2023/08/30 01:09:29;;;;;;;8.17;7.57;;;;;;;;;;5096780;28;20621;-63
2023/08/30 01:11:59;;;;;;;9.03;8.20;;;;;;;;;;5100403;28;20671;-62
2023/08/30 01:14:33;;;;;;;8.70;8.07;;;;;;;;;;5099355;28;21208;-61
2023/08/30 01:17:04;;;;;;;9.77;8.80;;;;;;;;;;5102042;28;21060;-62
2023/08/30 01:19:44;;;;;;;7.80;7.30;;;;;;;;;;5103155;28;20778;-62
2023/08/30 01:22:15;;;;;;;7.73;7.20;;;;;;;;;;5102579;28;20692;-63
2023/08/30 01:24:47;;;;;;;8.10;7.50;;;;;;;;;;5102615;28;20787;-61
2023/08/30 01:27:17;;;;;;;8.30;7.73;;;;;;;;;;5093796;28;20685;-64
2023/08/30 01:29:46;;;;;;;8.10;7.60;;;;;;;;;;5102077;28;20673;-62
2023/08/30 01:32:14;;;;;;;9.73;8.83;;;;;;;;;;5104980;28;20757;-61
2023/08/30 01:34:45;;;;;;;9.23;8.43;;;;;;;;;;5099615;28;20709;-61
2023/08/30 01:37:14;;;;;;;10.00;8.20;;;;;;;;;;5083559;28;20653;-62
2023/08/30 01:39:43;;;;;;;9.23;8.43;;;;;;;;;;5083094;28;20688;-63
2023/08/30 01:42:14;;;;;;;8.97;8.23;;;;;;;;;;5084088;28;20696;-61
2023/08/30 01:44:44;;;;;;;11.07;9.90;;;;;;;;;;5086390;28;20669;-61
2023/08/30 01:47:13;;;;;;;9.47;8.57;;;;;;;;;;5102658;28;20655;-61
2023/08/30 01:49:41;;;;;;;9.40;8.50;;;;;;;;;;5103672;28;20692;-61
2023/08/30 01:52:10;;;;;;;10.27;9.50;;;;;;;;;;5101607;28;20688;-62
2023/08/30 01:54:39;;;;;;;9.30;8.40;;;;;;;;;;5101521;28;20659;-62
2023/08/30 01:57:08;;;;;;;11.00;10.00;;;;;;;;;;5101882;28;20659;-61
2023/08/30 01:59:36;;;;;;;10.90;10.10;;;;;;;;;;5102831;28;20709;-62
2023/08/30 02:02:06;;;;;;;8.93;8.20;;;;;;;;;;5101466;28;20688;-63
2023/08/30 02:04:34;;;;;;;9.03;8.37;;;;;;;;;;5098304;28;20734;-62
2023/08/30 02:07:04;;;;;;;10.83;9.83;;;;;;;;;;5088583;28;20687;-61
2023/08/30 02:09:37;;;;;;;12.77;9.77;;;;;;;;;;5103093;28;20663;-62
2023/08/30 02:12:09;;;;;;;10.30;9.50;;;;;;;;;;5090024;28;20696;-61
2023/08/30 02:14:38;;;;;;;9.87;9.10;;;;;;;;;;5102191;28;21024;-62
2023/08/30 02:17:09;;;;;;;10.33;9.47;;;;;;;;;;5102025;28;20680;-61
2023/08/30 02:19:37;;;;;;;10.93;9.93;;;;;;;;;;5100787;28;20708;-62
2023/08/30 02:22:05;;;;;;;9.60;8.90;;;;;;;;;;5101824;28;20687;-63
2023/08/30 02:24:33;;;;;;;9.47;8.70;;;;;;;;;;5103202;28;20693;-63
2023/08/30 02:27:01;;;;;;;9.73;8.80;;;;;;;;;;5102400;28;20782;-61
2023/08/30 02:29:30;;;;;;;11.23;10.23;;;;;;;;;;5102818;28;20693;-62
2023/08/30 02:31:58;;;;;;;12.53;10.30;;;;;;;;;;5101889;28;20704;-61
2023/08/30 02:34:28;;;;;;;9.80;8.90;;;;;;;;;;5103162;28;20712;-62
2023/08/30 02:36:56;;;;;;;10.20;9.40;;;;;;;;;;5102675;28;21100;-64
2023/08/30 02:39:26;;;;;;;10.73;9.83;;;;;;;;;;5102447;28;20700;-62
2023/08/30 02:41:54;;;;;;;9.80;9.00;;;;;;;;;;5101058;28;20688;-61
2023/08/30 02:44:22;;;;;;;10.03;9.23;;;;;;;;;;5098246;28;20692;-61
2023/08/30 02:46:51;;;;;;;9.27;8.57;;;;;;;;;;5102084;28;20708;-62
2023/08/30 02:49:19;;;;;;;10.70;9.80;;;;;;;;;;5103210;28;21033;-62
2023/08/30 02:51:48;;;;;;;10.90;9.63;;;;;;;;;;5102213;28;20689;-62
2023/08/30 02:54:17;;;;;;;12.27;11.27;;;;;;;;;;5085770;28;20691;-62
2023/08/30 02:56:45;;;;;;;10.27;9.47;;;;;;;;;;5099695;28;20749;-62
2023/08/30 02:59:14;;;;;;;11.00;10.00;;;;;;;;;;5101860;28;20736;-61
2023/08/30 03:01:42;;;;;;;11.27;10.30;;;;;;;;;;5091889;28;21278;-62
2023/08/30 03:04:12;;;;;;;10.97;10.07;;;;;;;;;;5100316;28;20799;-62
2023/08/30 03:06:40;;;;;;;11.17;10.20;;;;;;;;;;5101017;28;20655;-62
2023/08/30 03:09:11;;;;;;;10.50;9.60;;;;;;;;;;5091213;28;21053;-62
2023/08/30 03:11:39;;;;;;;10.80;9.90;;;;;;;;;;5081580;28;20669;-62
2023/08/30 03:14:08;;;;;;;10.67;9.80;;;;;;;;;;5064626;28;20696;-62
2023/08/30 03:16:37;;;;;;;11.43;9.80;;;;;;;;;;5081399;28;20669;-62
2023/08/30 03:19:05;;;;;;;10.93;10.13;;;;;;;;;;5081299;28;20721;-62
2023/08/30 03:21:34;;;;;;;10.87;9.97;;;;;;;;;;5091722;28;20692;-62
2023/08/30 03:24:02;;;;;;;10.80;10.00;;;;;;;;;;5100213;28;20685;-62
2023/08/30 03:26:31;;;;;;;11.47;10.53;;;;;;;;;;5100866;28;20712;-61
2023/08/30 03:29:00;;;;;;;12.10;10.13;;;;;;;;;;5087963;28;20689;-62
2023/08/30 03:31:29;;;;;;;11.87;10.87;;;;;;;;;;5100521;28;20709;-62
2023/08/30 03:33:57;;;;;;;11.10;10.20;;;;;;;;;;5100901;28;20751;-63
2023/08/30 03:36:25;;;;;;;14.20;13.00;;;;;;;;;;5100375;28;21046;-65
2023/08/30 03:38:55;;;;;;;11.63;10.63;;;;;;;;;;5099141;28;20736;-66
2023/08/30 03:41:23;;;;;;;11.63;10.73;;;;;;;;;;5101686;28;20689;-62
2023/08/30 03:43:53;;;;;;;12.20;11.13;;;;;;;;;;5101504;28;20691;-63
2023/08/30 03:46:21;;;;;;;11.87;10.77;;;;;;;;;;5101656;28;20713;-62
2023/08/30 03:48:49;;;;;;;11.40;10.43;;;;;;;;;;5101510;28;20712;-63
2023/08/30 03:51:19;;;;;;;11.37;10.47;;;;;;;;;;5100822;28;20665;-63
2023/08/30 03:53:47;;;;;;;12.57;10.80;;;;;;;;;;5098789;28;20704;-62
2023/08/30 03:56:15;;;;;;;11.90;10.70;;;;;;;;;;5102141;28;20691;-64
2023/08/30 03:58:43;;;;;;;12.07;11.17;;;;;;;;;;5102097;28;20694;-62
2023/08/30 04:01:14;;;;;;;12.77;11.60;;;;;;;;;;5101069;28;20744;-63
2023/08/30 04:03:43;;;;;;;13.20;12.00;;;;;;;;;;5099851;28;20705;-62
2023/08/30 04:06:11;;;;;;;13.43;12.43;;;;;;;;;;5098834;28;20708;-62
2023/08/30 04:08:39;;;;;;;12.67;11.53;;;;;;;;;;5101298;28;20624;-63
2023/08/30 04:11:07;;;;;;;15.27;12.67;;;;;;;;;;5101219;28;20749;-62
2023/08/30 04:13:36;;;;;;;12.40;11.23;;;;;;;;;;5100214;28;20689;-63
2023/08/30 04:16:05;;;;;;;11.77;10.87;;;;;;;;;;5100358;28;20685;-63
2023/08/30 04:18:35;;;;;;;11.70;10.80;;;;;;;;;;5101084;28;20697;-63
2023/08/30 04:21:03;;;;;;;11.67;10.77;;;;;;;;;;5101128;28;20699;-63
2023/08/30 04:23:31;;;;;;;11.70;10.60;;;;;;;;;;5101587;28;20683;-64
2023/08/30 04:26:00;;;;;;;12.60;11.40;;;;;;;;;;5100182;28;20683;-63
2023/08/30 04:28:28;;;;;;;11.50;10.70;;;;;;;;;;5100153;28;20629;-63
2023/08/30 04:30:57;;;;;;;12.20;11.10;;;;;;;;;;5101670;28;20689;-62
2023/08/30 04:33:26;;;;;;;14.70;11.50;;;;;;;;;;5101155;28;20708;-65
2023/08/30 04:35:56;;;;;;;11.97;11.00;;;;;;;;;;5102202;28;20659;-61
2023/08/30 04:38:25;;;;;;;13.20;10.60;;;;;;;;;;5099653;28;20716;-62
2023/08/30 04:40:59;;;;;;;12.03;10.80;;;;;;;;;;5129356;27;20698;-63
2023/08/30 04:43:27;;;;;;;12.03;11.07;;;;;;;;;;5136619;27;20708;-63
2023/08/30 04:45:55;;;;;;;11.20;10.30;;;;;;;;;;5105448;28;21060;-66
2023/08/30 04:48:25;;;;;;;11.20;10.20;;;;;;;;;;5103216;28;21163;-66
2023/08/30 04:51:01;;;;;;;11.80;10.70;;;;;;;;;;5102582;28;20692;-63
2023/08/30 04:53:29;;;;;;;11.60;10.57;;;;;;;;;;5102288;28;20695;-63
2023/08/30 04:55:57;;;;;;;11.97;10.97;;;;;;;;;;5086360;28;20716;-63
2023/08/30 04:58:25;;;;;;;11.80;10.90;;;;;;;;;;5101790;28;20704;-64
2023/08/30 05:00:54;;;;;;;12.67;11.67;;;;;;;;;;5137330;27;20732;-63
2023/08/30 05:03:22;;;;;;;11.30;10.40;;;;;;;;;;5102351;28;20738;-63
2023/08/30 05:05:51;;;;;;;11.50;10.50;;;;;;;;;;5125148;27;20656;-63
2023/08/30 05:08:20;;;;;;;11.27;10.37;;;;;;;;;;5103575;28;20705;-63
2023/08/30 05:10:50;;;;;;;11.87;10.80;;;;;;;;;;5102034;28;20675;-63
2023/08/30 05:13:19;;;;;;;11.97;10.80;;;;;;;;;;5103094;28;20708;-62
2023/08/30 05:15:47;;;;;;;13.77;11.60;;;;;;;;;;5104261;28;21048;-63
2023/08/30 05:18:15;;;;;;;12.20;11.20;;;;;;;;;;5102795;28;21184;-64
2023/08/30 05:20:44;;;;;;;12.00;10.80;;;;;;;;;;5102093;28;20724;-64
2023/08/30 05:23:12;;;;;;;11.60;10.67;;;;;;;;;;5101612;28;20700;-63
2023/08/30 05:25:42;;;;;;;12.33;11.23;;;;;;;;;;5102368;28;20694;-62
2023/08/30 05:28:10;;;;;;;12.27;11.10;;;;;;;;;;5103212;28;20683;-62
2023/08/30 05:30:39;;;;;;;15.00;12.00;;;;;;;;;;5104808;28;20770;-63
2023/08/30 05:33:16;;;;;;;12.37;11.17;;;;;;;;;;5102675;28;20651;-63
2023/08/30 05:36:02;;;;;;;13.00;11.83;;;;;;;;;;5084076;28;20670;-63
2023/08/30 05:38:53;;;;;;;11.80;10.80;;;;;;;;;;5094150;28;20693;-63
2023/08/30 05:41:47;;;;;;;11.50;10.57;;;;;;;;;;5101952;28;20727;-64
2023/08/30 05:44:16;;;;;;;14.27;12.90;;;;;;;;;;5103693;28;21061;-62
2023/08/30 05:46:45;;;;;;;12.47;11.30;;;;;;;;;;5099837;28;21969;-62
2023/08/30 05:49:13;;;;;;;12.90;11.70;;;;;;;;;;5099285;28;20680;-61
2023/08/30 05:51:41;;;;;;;13.07;11.93;;;;;;;;;;5098770;28;21297;-63
2023/08/30 05:54:10;;;;;;;13.37;12.20;;;;;;;;;;5098001;28;21011;-62
2023/08/30 05:56:38;;;;;;;13.20;12.00;;;;;;;;;;5098020;28;21037;-62
2023/08/30 05:59:07;;;;;;;13.10;11.80;;;;;;;;;;5098722;28;21033;-62
2023/08/30 06:01:36;;;;;;;13.97;12.33;;;;;;;;;;5097997;28;21099;-62
2023/08/30 06:04:05;;;;;;;13.70;12.57;;;;;;;;;;5094599;28;20727;-62
2023/08/30 06:06:33;;;;;;;12.60;11.30;;;;;;;;;;5099690;28;20716;-63
2023/08/30 06:09:01;;;;;;;12.83;11.63;;;;;;;;;;5098961;28;20700;-62
2023/08/30 06:11:29;;;;;;;13.47;12.27;;;;;;;;;;5099408;28;20667;-62
2023/08/30 06:13:58;;;;;;;14.53;13.33;;;;;;;;;;5094729;28;20616;-63
2023/08/30 06:16:28;;;;;;;13.30;12.20;;;;;;;;;;5103243;28;20866;-64
2023/08/30 06:18:58;;;;;;;12.90;11.90;;;;;;;;;;5110039;28;20234;-63
2023/08/30 06:21:26;;;;;;;13.27;11.97;;;;;;;;;;5109331;28;20676;-65
2023/08/30 06:23:54;;;;;;;12.10;11.20;;;;;;;;;;5109932;28;20659;-62
2023/08/30 06:26:22;;;;;;;12.40;11.30;;;;;;;;;;5106641;28;20668;-64
2023/08/30 06:28:51;;;;;;;12.67;11.67;;;;;;;;;;5105125;28;20673;-62
2023/08/30 06:31:19;;;;;;;14.27;13.17;;;;;;;;;;5104809;28;20642;-63
2023/08/30 06:33:50;;;;;;;16.80;12.80;;;;;;;;;;5109585;28;20662;-62
2023/08/30 06:36:18;;;;;;;15.37;13.37;;;;;;;;;;5108877;28;20622;-64
2023/08/30 06:38:47;;;;;;;14.73;13.17;;;;;;;;;;5103408;28;20686;-63
2023/08/30 06:41:15;;;;;;;13.80;12.43;;;;;;;;;;5107691;28;20768;-66
2023/08/30 06:43:43;;;;;;;15.17;13.83;;;;;;;;;;5102627;28;20712;-63
2023/08/30 06:46:11;;;;;;;14.63;13.27;;;;;;;;;;5105720;28;21017;-61
2023/08/30 06:48:40;;;;;;;14.90;13.60;;;;;;;;;;5103219;28;20652;-63
2023/08/30 06:51:10;;;;;;;16.70;13.57;;;;;;;;;;5103550;28;20694;-63
2023/08/30 06:53:38;;;;;;;15.70;12.80;;;;;;;;;;5104924;28;20608;-65
2023/08/30 06:56:07;;;;;;;15.03;13.63;;;;;;;;;;5104844;28;20696;-64
2023/08/30 06:58:35;;;;;;;17.87;13.67;;;;;;;;;;5105691;28;20632;-65
2023/08/30 07:01:04;;;;;;;14.70;13.40;;;;;;;;;;5105152;28;20752;-64
2023/08/30 07:03:32;;;;;;;17.23;12.97;;;;;;;;;;5104619;28;20653;-64
2023/08/30 07:06:00;;;;;;;14.30;12.87;;;;;;;;;;5104443;28;20692;-64
2023/08/30 07:08:30;;;;;;;13.83;12.60;;;;;;;;;;5100989;28;20709;-65
2023/08/30 07:10:58;;;;;;;14.00;12.70;;;;;;;;;;5103550;28;20633;-64
2023/08/30 07:13:26;;;;;;;20.83;14.37;;;;;;;;;;5102016;28;20719;-62
2023/08/30 07:15:54;;;;;;;14.10;10.80;;;;;;;;;;5103376;28;20634;-65
2023/08/30 07:18:23;;;;;;;12.33;11.13;;;;;;;;;;5106344;28;20739;-62
2023/08/30 07:20:51;;;;;;;13.33;12.10;;;;;;;;;;5108734;28;20648;-62
2023/08/30 07:23:19;;;;;;;11.97;10.87;;;;;;;;;;5107460;28;20668;-63
2023/08/30 07:25:49;;;;;;;11.60;10.60;;;;;;;;;;5092072;28;20642;-62
2023/08/30 07:28:17;;;;;;;14.30;10.73;;;;;;;;;;5108074;28;20648;-64
2023/08/30 07:30:45;;;;;;;13.00;10.27;;;;;;;;;;5105478;28;20635;-63
2023/08/30 07:33:13;;;;;;;11.00;9.87;;;;;;;;;;5105024;28;20687;-66
2023/08/30 07:35:41;;;;;;;11.10;10.10;;;;;;;;;;5104376;28;20693;-64
2023/08/30 07:38:09;;;;;;;10.10;9.03;;;;;;;;;;5107597;28;20633;-66
2023/08/30 07:40:38;;;;;;;10.30;9.37;;;;;;;;;;5100190;28;20618;-66
2023/08/30 07:43:07;;;;;;;10.80;9.80;;;;;;;;;;5106176;28;20709;-64
2023/08/30 07:45:35;;;;;;;10.47;9.30;;;;;;;;;;5106618;28;20637;-66
2023/08/30 07:48:04;;;;;;;9.10;8.40;;;;;;;;;;5105955;28;20652;-64
2023/08/30 07:50:32;;;;;;;8.80;8.10;;;;;;;;;;5106094;28;20641;-65
2023/08/30 07:53:00;;;;;;;9.53;8.73;;;;;;;;;;5104946;28;20677;-65
2023/08/30 07:55:27;;;;;;;9.10;8.00;;;;;;;;;;5104739;28;20665;-64
2023/08/30 07:57:56;;;;;;;9.33;8.47;;;;;;;;;;5104124;28;20649;-65
2023/08/30 08:00:25;;;;;;;10.10;7.50;;;;;;;;;;5102808;28;20708;-65
2023/08/30 08:02:53;;;;;;;8.57;7.80;;;;;;;;;;5089979;28;20703;-65
2023/08/30 08:05:22;;;;;;;9.50;8.30;;;;;;;;;;5104785;28;20648;-64
2023/08/30 08:07:51;;;;;;;9.90;7.30;;;;;;;;;;5105100;28;21269;-65
2023/08/30 08:10:20;;;;;;;7.50;6.90;;;;;;;;;;5103268;28;20705;-63
2023/08/30 08:12:48;;;;;;;7.13;6.63;;;;;;;;;;5102953;28;20696;-64
2023/08/30 08:15:16;;;;;;;7.50;6.93;;;;;;;;;;5102595;28;20682;-63
2023/08/30 08:17:46;;;;;;;7.23;6.73;;;;;;;;;;5108539;28;20653;-64
2023/08/30 08:20:14;;;;;;;6.13;5.63;;;;;;;;;;5108249;28;20675;-63
2023/08/30 08:22:43;;;;;;;7.50;6.90;;;;;;;;;;5108810;28;20740;-65
2023/08/30 08:25:11;;;;;;;6.67;6.07;;;;;;;;;;5090858;28;20701;-64
2023/08/30 08:27:39;;;;;;;7.27;6.37;;;;;;;;;;5103895;28;20655;-63
2023/08/30 08:30:09;;;;;;;6.47;5.93;;;;;;;;;;5104481;28;21087;-65
2023/08/30 08:32:37;;;;;;;6.57;6.07;;;;;;;;;;5106252;28;20692;-63
2023/08/30 08:35:08;;;;;;;6.00;5.60;;;;;;;;;;5105257;28;20765;-63
2023/08/30 08:37:36;;;;;;;6.40;5.77;;;;;;;;;;5107822;28;20766;-65
2023/08/30 08:40:08;;;;;;;6.80;6.07;;;;;;;;;;5107156;28;20693;-64
2023/08/30 08:42:37;;;;;;;5.20;4.90;;;;;;;;;;5105081;28;20680;-64
2023/08/30 08:45:05;;;;;;;6.10;5.50;;;;;;;;;;5107971;28;20641;-63
2023/08/30 08:47:38;;;;;;;6.07;5.67;;;;;;;;;;5107486;28;21201;-65
2023/08/30 08:50:09;;;;;;;6.27;5.87;;;;;;;;;;5104570;28;21257;-62
2023/08/30 08:52:37;;;;;;;5.80;5.40;;;;;;;;;;5108891;28;20657;-64
2023/08/30 08:55:06;;;;;;;5.27;4.87;;;;;;;;;;5107219;28;20642;-64
2023/08/30 08:57:34;;;;;;;5.73;4.50;;;;;;;;;;5108107;28;20645;-64
2023/08/30 09:00:03;;;;;;;5.57;5.27;;;;;;;;;;5106499;28;20708;-64
2023/08/30 09:02:31;;;;;;;5.83;4.67;;;;;;;;;;5100399;28;20747;-67
2023/08/30 09:05:00;;;;;;;6.37;5.80;;;;;;;;;;5098278;28;21155;-64
2023/08/30 09:07:30;;;;;;;5.80;5.50;;;;;;;;;;5104280;28;20696;-63
2023/08/30 09:09:58;;;;;;;6.33;5.87;;;;;;;;;;5110702;28;20651;-63
2023/08/30 09:12:27;;;;;;;5.23;4.37;;;;;;;;;;5108643;28;20735;-63
2023/08/30 09:14:56;;;;;;;5.20;4.70;;;;;;;;;;5099912;28;20739;-67
2023/08/30 09:17:24;;;;;;;5.03;4.73;;;;;;;;;;5107382;28;20724;-64
2023/08/30 09:19:52;;;;;;;5.53;5.17;;;;;;;;;;5104920;28;21097;-64
2023/08/30 09:22:20;;;;;;;4.30;4.10;;;;;;;;;;5106333;28;21085;-64
2023/08/30 09:24:50;;;;;;;4.67;4.47;;;;;;;;;;5108096;28;20688;-63
2023/08/30 09:27:19;;;;;;;4.27;4.03;;;;;;;;;;5106007;28;20693;-65
2023/08/30 09:29:48;;;;;;;4.73;4.33;;;;;;;;;;5107414;28;20696;-62
2023/08/30 09:32:22;;;;;;;5.27;4.90;;;;;;;;;;5100491;28;21234;-63
2023/08/30 09:34:51;;;;;;;4.87;4.57;;;;;;;;;;5101465;28;20715;-63
2023/08/30 09:37:23;;;;;;;4.47;4.23;;;;;;;;;;5099040;28;20693;-62
2023/08/30 09:39:52;;;;;;;5.00;4.70;;;;;;;;;;5092045;28;20665;-62
2023/08/30 09:42:21;;;;;;;4.27;3.77;;;;;;;;;;5100603;28;20724;-63
2023/08/30 09:44:50;;;;;;;4.50;4.10;;;;;;;;;;5099715;28;20681;-64
2023/08/30 09:47:18;;;;;;;3.87;3.70;;;;;;;;;;5103922;28;20696;-63
2023/08/30 09:49:47;;;;;;;5.07;4.60;;;;;;;;;;5104345;28;20685;-64
2023/08/30 09:52:16;;;;;;;4.67;4.37;;;;;;;;;;5103156;28;20708;-64
2023/08/30 09:54:46;;;;;;;4.20;4.00;;;;;;;;;;5101287;28;20704;-63
2023/08/30 09:57:17;;;;;;;3.60;3.40;;;;;;;;;;5099985;28;20748;-67
2023/08/30 09:59:46;;;;;;;4.40;4.10;;;;;;;;;;5097194;28;20675;-64
2023/08/30 10:02:14;;;;;;;4.10;3.80;;;;;;;;;;5095982;28;20664;-64
2023/08/30 10:04:43;;;;;;;4.47;4.17;;;;;;;;;;5089605;28;20735;-62
2023/08/30 10:07:11;;;;;;;4.80;4.53;;;;;;;;;;5097122;28;20690;-62
2023/08/30 10:09:40;;;;;;;3.90;3.70;;;;;;;;;;5096351;28;20745;-62
2023/08/30 10:12:08;;;;;;;3.60;3.40;;;;;;;;;;5094700;28;20673;-63
2023/08/30 10:14:38;;;;;;;3.37;3.07;;;;;;;;;;5095592;28;20716;-63
2023/08/30 10:17:08;;;;;;;4.43;4.23;;;;;;;;;;5096937;28;20712;-62
2023/08/30 10:19:38;;;;;;;3.50;3.27;;;;;;;;;;5097048;28;20639;-62
2023/08/30 10:22:08;;;;;;;3.90;3.53;;;;;;;;;;5096355;28;20678;-62
2023/08/30 10:24:39;;;;;;;4.70;4.40;;;;;;;;;;5097373;28;20695;-63
2023/08/30 10:27:09;;;;;;;3.77;3.57;;;;;;;;;;5095934;28;20692;-62
2023/08/30 10:29:40;;;;;;;3.80;3.60;;;;;;;;;;5094368;28;21254;-63
2023/08/30 10:32:09;;;;;;;5.53;4.10;;;;;;;;;;5096529;28;21234;-62
2023/08/30 10:34:38;;;;;;;3.33;3.23;;;;;;;;;;5122708;27;20817;-62
2023/08/30 10:37:08;;;;;;;3.63;3.43;;;;;;;;;;5096769;28;20715;-62
2023/08/30 10:39:37;;;;;;;4.00;3.80;;;;;;;;;;5094701;28;20696;-62
2023/08/30 10:42:11;;;;;;;4.27;3.80;;;;;;;;;;5096715;28;20623;-62
2023/08/30 10:45:00;;;;;;;4.27;4.07;;;;;;;;;;5095922;28;20553;-62
2023/08/30 10:47:29;;;;;;;4.50;4.10;;;;;;;;;;5094473;28;20734;-62
2023/08/30 10:49:58;;;;;;;3.50;3.30;;;;;;;;;;5095242;28;20704;-63
2023/08/30 10:52:26;;;;;;;4.23;3.60;;;;;;;;;;5096194;28;20614;-62
2023/08/30 10:54:55;;;;;;;4.10;3.90;;;;;;;;;;5096270;28;21242;-62
2023/08/30 10:57:26;;;;;;;3.80;3.60;;;;;;;;;;5094367;28;20628;-62
2023/08/30 11:00:10;;;;;;;4.23;4.00;;;;;;;;;;5096579;28;20619;-62
2023/08/30 11:02:38;;;;;;;3.80;3.50;;;;;;;;;;5095252;28;20720;-62
2023/08/30 11:05:07;;;;;;;3.90;3.50;;;;;;;;;;5093125;28;20648;-62
2023/08/30 11:07:36;;;;;;;4.00;3.70;;;;;;;;;;5079200;28;20632;-62
2023/08/30 11:10:06;;;;;;;6.57;3.77;;;;;;;;;;5075389;28;20701;-62
2023/08/30 11:12:35;;;;;;;4.47;4.17;;;;;;;;;;5076765;28;20962;-62
2023/08/30 11:15:03;;;;;;;4.60;4.20;;;;;;;;;;5085380;28;20702;-62
2023/08/30 11:17:33;;;;;;;4.80;4.40;;;;;;;;;;5094984;28;20674;-62
2023/08/30 11:20:07;;;;;;;5.33;4.90;;;;;;;;;;5095069;28;21042;-61
2023/08/30 11:22:36;;;;;;;5.30;4.90;;;;;;;;;;5095036;28;20696;-62
2023/08/30 11:25:04;;;;;;;5.13;4.93;;;;;;;;;;5094821;28;20614;-62
2023/08/30 11:27:33;;;;;;;6.20;5.80;;;;;;;;;;5094611;28;20674;-61
2023/08/30 11:30:02;;;;;;;5.47;5.27;;;;;;;;;;5094339;28;20619;-62
2023/08/30 11:32:35;;;;;;;5.20;5.00;;;;;;;;;;5094525;28;20628;-63
2023/08/30 11:35:04;;;;;;;4.83;4.63;;;;;;;;;;5093815;28;20641;-63
2023/08/30 11:37:33;;;;;;;5.50;5.30;;;;;;;;;;5094558;28;20676;-63
2023/08/30 11:40:03;;;;;;;5.90;5.70;;;;;;;;;;5093944;28;21257;-62
2023/08/30 11:42:32;;;;;;;5.40;5.20;;;;;;;;;;5093925;28;20616;-62
2023/08/30 11:45:00;;;;;;;6.20;6.00;;;;;;;;;;5094106;28;20656;-62
2023/08/30 11:47:29;;;;;;;6.30;6.10;;;;;;;;;;5094507;28;20609;-63
2023/08/30 11:49:59;;;;;;;6.60;6.10;;;;;;;;;;5093489;28;20680;-62
2023/08/30 11:52:27;;;;;;;6.47;6.17;;;;;;;;;;5098922;28;20593;-62
2023/08/30 11:54:56;;;;;;;6.40;6.20;;;;;;;;;;5097638;28;20627;-63
2023/08/30 11:57:25;;;;;;;6.30;6.10;;;;;;;;;;5097589;28;21267;-63
2023/08/30 11:59:54;;;;;;;6.37;5.97;;;;;;;;;;5096123;28;20659;-62
2023/08/30 12:02:23;;;;;;;6.33;5.93;;;;;;;;;;5096966;28;21254;-63
2023/08/30 12:04:53;;;;;;;6.70;6.40;;;;;;;;;;5085596;28;21226;-63
2023/08/30 12:07:25;;;;;;;7.17;6.80;;;;;;;;;;5097948;28;20628;-66
2023/08/30 12:09:54;;;;;;;6.67;6.20;;;;;;;;;;5097654;28;21099;-62
2023/08/30 12:12:25;;;;;;;6.90;6.07;;;;;;;;;;5099104;28;20610;-63
2023/08/30 12:14:56;;;;;;;6.63;6.20;;;;;;;;;;5098245;28;20704;-63
2023/08/30 12:17:25;;;;;;;9.07;7.73;;;;;;;;;;5098111;28;20674;-62
2023/08/30 12:19:59;;;;;;;6.93;6.53;;;;;;;;;;5098406;28;20615;-62
2023/08/30 12:22:38;;;;;;;6.97;6.37;;;;;;;;;;5097693;28;20674;-62
2023/08/30 12:25:17;;;;;;;7.30;7.00;;;;;;;;;;5097617;28;20647;-64
2023/08/30 12:27:46;;;;;;;7.37;6.80;;;;;;;;;;5096374;28;20611;-62
2023/08/30 12:30:16;;;;;;;7.03;6.73;;;;;;;;;;5097472;28;20627;-63
2023/08/30 12:32:44;;;;;;;7.27;6.87;;;;;;;;;;5096087;28;21203;-63
2023/08/30 12:35:13;;;;;;;6.63;6.43;;;;;;;;;;5094694;28;20660;-63
2023/08/30 12:37:42;;;;;;;7.40;6.90;;;;;;;;;;5097386;28;20625;-63
2023/08/30 12:40:11;;;;;;;7.03;6.70;;;;;;;;;;5096065;28;20614;-63
2023/08/30 12:42:39;;;;;;;6.37;6.17;;;;;;;;;;5097607;28;20613;-62
2023/08/30 12:45:08;;;;;;;7.63;7.33;;;;;;;;;;5092339;28;21055;-63
2023/08/30 12:47:36;;;;;;;7.30;6.90;;;;;;;;;;5097049;28;20721;-63
2023/08/30 12:50:05;;;;;;;7.70;7.40;;;;;;;;;;5097604;28;20617;-63
2023/08/30 12:52:33;;;;;;;7.87;7.47;;;;;;;;;;5096421;28;20700;-61
2023/08/30 12:55:03;;;;;;;7.10;6.80;;;;;;;;;;5096749;28;21262;-61
2023/08/30 12:57:31;;;;;;;6.33;6.13;;;;;;;;;;5093790;28;20639;-63
2023/08/30 13:00:00;;;;;;;7.10;6.80;;;;;;;;;;5094758;28;21314;-62
2023/08/30 13:02:28;;;;;;;7.20;6.90;;;;;;;;;;5093422;28;20631;-63
2023/08/30 13:04:56;;;;;;;6.97;6.70;;;;;;;;;;5094885;28;20675;-62
2023/08/30 13:07:24;;;;;;;6.60;6.40;;;;;;;;;;5093450;28;20633;-62
2023/08/30 13:09:52;;;;;;;6.77;6.47;;;;;;;;;;5095863;28;20677;-62
2023/08/30 13:12:22;;;;;;;7.30;7.00;;;;;;;;;;5095399;28;20626;-62
2023/08/30 13:14:50;;;;;;;7.20;7.00;;;;;;;;;;5090485;28;20630;-62
2023/08/30 13:17:18;;;;;;;6.83;6.53;;;;;;;;;;5092321;28;21163;-62
2023/08/30 13:19:47;;;;;;;8.10;7.60;;;;;;;;;;5091106;28;20636;-62
2023/08/30 13:22:15;;;;;;;6.87;6.67;;;;;;;;;;5096222;28;20649;-64
2023/08/30 13:24:43;;;;;;;6.87;6.57;;;;;;;;;;5095892;28;20669;-64
2023/08/30 13:27:12;;;;;;;7.10;6.70;;;;;;;;;;5095530;28;20609;-62
2023/08/30 13:29:42;;;;;;;7.00;6.80;;;;;;;;;;5095687;28;20625;-62
2023/08/30 13:32:10;;;;;;;7.67;7.37;;;;;;;;;;5097003;28;20624;-62
2023/08/30 13:34:39;;;;;;;7.47;6.87;;;;;;;;;;5097446;28;20725;-62
2023/08/30 13:37:07;;;;;;;7.17;6.93;;;;;;;;;;5089985;28;20640;-61
2023/08/30 13:39:35;;;;;;;7.90;7.60;;;;;;;;;;5095347;28;20720;-65
2023/08/30 13:42:03;;;;;;;7.90;7.60;;;;;;;;;;5084536;28;20736;-63
2023/08/30 13:44:32;;;;;;;7.77;7.47;;;;;;;;;;5097801;28;20659;-62
2023/08/30 13:47:01;;;;;;;7.00;6.80;;;;;;;;;;5098184;28;20704;-62
2023/08/30 13:49:30;;;;;;;7.83;7.53;;;;;;;;;;5096666;28;20705;-62
2023/08/30 13:51:58;;;;;;;7.47;7.27;;;;;;;;;;5096080;28;20693;-64
2023/08/30 13:54:28;;;;;;;7.87;7.57;;;;;;;;;;5097828;28;21016;-63
2023/08/30 13:56:58;;;;;;;8.50;8.00;;;;;;;;;;5097247;28;21278;-62
2023/08/30 13:59:28;;;;;;;8.03;7.50;;;;;;;;;;5112099;28;20659;-62
2023/08/30 14:01:57;;;;;;;8.00;7.70;;;;;;;;;;5095132;28;20696;-62
2023/08/30 14:04:26;;;;;;;8.07;7.67;;;;;;;;;;5096429;28;20665;-66
2023/08/30 14:06:55;;;;;;;8.37;7.90;;;;;;;;;;5096998;28;20712;-62
2023/08/30 14:09:23;;;;;;;7.47;7.17;;;;;;;;;;5095979;28;20706;-63
2023/08/30 14:11:51;;;;;;;7.67;7.47;;;;;;;;;;5097478;28;20694;-62
2023/08/30 14:14:19;;;;;;;7.53;7.23;;;;;;;;;;5097487;28;20681;-62
2023/08/30 14:16:47;;;;;;;7.23;7.00;;;;;;;;;;5097198;28;20704;-62
2023/08/30 14:19:16;;;;;;;7.50;7.30;;;;;;;;;;5097496;28;20725;-64
2023/08/30 14:21:46;;;;;;;7.50;7.20;;;;;;;;;;5096667;28;20740;-66
2023/08/30 14:24:14;;;;;;;7.63;7.33;;;;;;;;;;5096808;28;20705;-62
2023/08/30 14:26:42;;;;;;;7.40;7.20;;;;;;;;;;5097305;28;20605;-62
2023/08/30 14:29:11;;;;;;;8.37;7.63;;;;;;;;;;5096343;28;20632;-62
2023/08/30 14:31:39;;;;;;;7.47;7.17;;;;;;;;;;5096630;28;20628;-63
2023/08/30 14:34:07;;;;;;;7.43;7.23;;;;;;;;;;5096121;28;20740;-62
2023/08/30 14:36:36;;;;;;;7.57;7.17;;;;;;;;;;5096197;28;20704;-63
2023/08/30 14:39:06;;;;;;;8.70;8.03;;;;;;;;;;5096180;28;20629;-62
2023/08/30 14:41:36;;;;;;;7.80;7.50;;;;;;;;;;5096193;28;20706;-62
2023/08/30 14:44:04;;;;;;;7.80;7.40;;;;;;;;;;5095896;28;21206;-62